Time;durP1;ratioP1;P1;durP2;ratioP2;P2;SDS_P1;SDS_P2;PMS_P1;PMS_P2;Temp;Humidity;BMP_temperature;BMP_pressure;BME280_temperature;BME280_humidity;BME280_pressure;Samples;Min_cycle;Max_cycle;Signal;HPM_P1;HPM_P2
2021/07/28 00:01:40;;;;;;;3.23;2.00;;;;;;;;;;10436339;28;20030;-82
2021/07/28 00:06:42;;;;;;;5.87;1.93;;;;;;;;;;10475739;28;20055;-81
2021/07/28 00:11:43;;;;;;;8.80;2.38;;;;;;;;;;10464631;28;20032;-83
2021/07/28 00:16:43;;;;;;;7.55;2.45;;;;;;;;;;10446809;28;20053;-83
2021/07/28 00:27:04;;;;;;;5.43;2.50;;;;;;;;;;10447627;28;20029;-84
2021/07/28 00:32:05;;;;;;;4.70;2.10;;;;;;;;;;10450255;28;20033;-84
2021/07/28 00:37:05;;;;;;;4.95;1.60;;;;;;;;;;10447490;28;20435;-83
2021/07/28 00:42:05;;;;;;;4.07;1.80;;;;;;;;;;10479720;28;20063;-84
2021/07/28 00:47:06;;;;;;;6.90;2.00;;;;;;;;;;10491220;28;20492;-81
2021/07/28 00:52:07;;;;;;;7.57;1.90;;;;;;;;;;10490084;28;20037;-81
2021/07/28 00:57:08;;;;;;;2.83;1.92;;;;;;;;;;10493759;28;20821;-81
2021/07/28 01:02:08;;;;;;;4.82;1.73;;;;;;;;;;10491861;28;20041;-83
2021/07/28 01:07:09;;;;;;;4.73;2.23;;;;;;;;;;10489294;28;20033;-82
2021/07/28 01:12:09;;;;;;;5.43;2.00;;;;;;;;;;10497064;28;20036;-82
2021/07/28 01:17:10;;;;;;;2.20;1.73;;;;;;;;;;10496986;28;20050;-82
2021/07/28 01:22:10;;;;;;;7.43;1.70;;;;;;;;;;10500899;28;20449;-82
2021/07/28 01:27:11;;;;;;;3.60;1.87;;;;;;;;;;10494471;28;20024;-81
2021/07/28 01:32:14;;;;;;;2.40;1.73;;;;;;;;;;10482567;28;20028;-83
2021/07/28 01:37:15;;;;;;;2.55;1.85;;;;;;;;;;10492741;28;20047;-82
2021/07/28 01:42:15;;;;;;;3.92;1.83;;;;;;;;;;10500921;28;20797;-81
2021/07/28 01:47:16;;;;;;;3.97;1.57;;;;;;;;;;10501050;28;20119;-81
2021/07/28 01:52:16;;;;;;;3.57;1.57;;;;;;;;;;10473427;28;20032;-82
2021/07/28 01:57:17;;;;;;;3.07;1.50;;;;;;;;;;10497649;28;20443;-81
2021/07/28 02:02:17;;;;;;;3.47;1.67;;;;;;;;;;10499507;28;20056;-81
2021/07/28 02:07:17;;;;;;;6.10;1.40;;;;;;;;;;10488520;28;20039;-81
2021/07/28 02:12:18;;;;;;;2.20;1.27;;;;;;;;;;10496905;28;20526;-81
2021/07/28 02:17:18;;;;;;;3.03;1.70;;;;;;;;;;10483187;28;20466;-82
2021/07/28 02:22:19;;;;;;;4.20;1.67;;;;;;;;;;10486390;28;20761;-82
2021/07/28 02:27:19;;;;;;;2.63;1.63;;;;;;;;;;10470518;28;20375;-82
2021/07/28 02:32:19;;;;;;;7.70;1.80;;;;;;;;;;10483760;28;20024;-82
2021/07/28 02:37:20;;;;;;;2.38;1.67;;;;;;;;;;10494065;28;20036;-82
2021/07/28 02:42:20;;;;;;;2.03;1.40;;;;;;;;;;10497699;28;20032;-81
2021/07/28 02:47:21;;;;;;;3.83;1.97;;;;;;;;;;10487201;28;20017;-81
2021/07/28 02:52:21;;;;;;;2.50;1.77;;;;;;;;;;10489656;28;20353;-81
2021/07/28 02:57:21;;;;;;;3.00;1.20;;;;;;;;;;10489174;28;20162;-81
2021/07/28 03:02:22;;;;;;;3.40;1.70;;;;;;;;;;10499223;28;20032;-83
2021/07/28 03:07:22;;;;;;;1.43;1.10;;;;;;;;;;10490519;28;20399;-83
2021/07/28 03:12:23;;;;;;;2.50;1.50;;;;;;;;;;10484653;28;20075;-83
2021/07/28 03:17:23;;;;;;;2.92;1.30;;;;;;;;;;10483295;28;20276;-83
2021/07/28 03:22:25;;;;;;;2.03;1.20;;;;;;;;;;10489442;28;20041;-83
2021/07/28 03:27:25;;;;;;;2.28;1.33;;;;;;;;;;10485213;28;20460;-84
2021/07/28 03:32:26;;;;;;;2.33;1.30;;;;;;;;;;10493431;28;20040;-83
2021/07/28 03:37:26;;;;;;;2.63;1.30;;;;;;;;;;10481353;28;20040;-84
2021/07/28 03:42:30;;;;;;;1.20;1.10;;;;;;;;;;10491754;28;20438;-83
2021/07/28 03:47:31;;;;;;;1.33;1.23;;;;;;;;;;10457844;28;20041;-82
2021/07/28 03:52:31;;;;;;;1.90;1.40;;;;;;;;;;10483157;28;20112;-82
2021/07/28 03:57:32;;;;;;;2.83;1.30;;;;;;;;;;10492034;28;20482;-82
2021/07/28 04:02:32;;;;;;;2.10;1.42;;;;;;;;;;10497865;28;20024;-82
2021/07/28 04:07:32;;;;;;;2.00;1.20;;;;;;;;;;10488477;23;20056;-81
2021/07/28 04:12:33;;;;;;;1.77;1.13;;;;;;;;;;10481289;28;20475;-83
2021/07/28 04:17:33;;;;;;;2.33;1.30;;;;;;;;;;10471183;28;20036;-82
2021/07/28 04:22:34;;;;;;;2.00;1.30;;;;;;;;;;10473096;28;20033;-84
2021/07/28 04:27:34;;;;;;;1.40;1.10;;;;;;;;;;10492025;28;20138;-83
2021/07/28 04:32:34;;;;;;;2.17;1.10;;;;;;;;;;10483129;28;20489;-83
2021/07/28 04:37:35;;;;;;;1.33;1.08;;;;;;;;;;10491715;28;20454;-82
2021/07/28 04:42:36;;;;;;;1.30;1.13;;;;;;;;;;10467132;28;20038;-82
2021/07/28 04:47:37;;;;;;;2.15;1.20;;;;;;;;;;10464454;28;20070;-82
2021/07/28 04:52:37;;;;;;;1.95;1.40;;;;;;;;;;10490107;28;20078;-83
2021/07/28 04:57:38;;;;;;;1.23;1.17;;;;;;;;;;10459783;28;20357;-84
2021/07/28 05:02:38;;;;;;;1.30;1.20;;;;;;;;;;10476093;28;20024;-84
2021/07/28 05:07:38;;;;;;;2.33;1.00;;;;;;;;;;10458443;28;20119;-81
2021/07/28 05:12:39;;;;;;;1.50;0.90;;;;;;;;;;10454700;28;20029;-81
2021/07/28 05:17:39;;;;;;;1.10;1.00;;;;;;;;;;10462071;28;20825;-81
2021/07/28 05:22:40;;;;;;;1.73;1.10;;;;;;;;;;10462441;28;20439;-80
2021/07/28 05:27:41;;;;;;;1.40;1.27;;;;;;;;;;10490013;28;20378;-85
2021/07/28 05:32:41;;;;;;;1.42;1.00;;;;;;;;;;10462353;28;20353;-83
2021/07/28 05:37:41;;;;;;;1.33;1.20;;;;;;;;;;10471894;28;20115;-83
2021/07/28 05:42:42;;;;;;;1.87;1.07;;;;;;;;;;10461837;28;20352;-86
2021/07/28 05:47:44;;;;;;;1.63;1.23;;;;;;;;;;10453522;28;20042;-85
2021/07/28 05:52:45;;;;;;;2.33;1.17;;;;;;;;;;10468981;28;20022;-88
2021/07/28 05:57:47;;;;;;;1.30;1.20;;;;;;;;;;10472518;28;20036;-84
2021/07/28 06:02:47;;;;;;;2.55;1.25;;;;;;;;;;10460765;28;20037;-84
2021/07/28 06:07:48;;;;;;;1.20;1.10;;;;;;;;;;10453984;28;20114;-83
2021/07/28 06:12:48;;;;;;;1.03;0.90;;;;;;;;;;10460781;28;20052;-83
2021/07/28 06:17:49;;;;;;;2.07;1.30;;;;;;;;;;10462495;28;21018;-83
2021/07/28 06:22:49;;;;;;;1.40;1.00;;;;;;;;;;10466687;28;20453;-82
2021/07/28 06:27:50;;;;;;;1.67;1.00;;;;;;;;;;10465083;28;20036;-85
2021/07/28 06:32:50;;;;;;;1.15;0.80;;;;;;;;;;10466399;28;20025;-84
2021/07/28 06:37:52;;;;;;;1.23;1.00;;;;;;;;;;10458599;28;20369;-84
2021/07/28 06:42:52;;;;;;;2.25;1.25;;;;;;;;;;10458016;28;20029;-83
2021/07/28 06:47:53;;;;;;;1.00;0.87;;;;;;;;;;10452668;28;20515;-84
2021/07/28 06:52:53;;;;;;;0.90;0.85;;;;;;;;;;10456245;28;20063;-84
2021/07/28 06:57:53;;;;;;;1.20;0.93;;;;;;;;;;10454937;28;20037;-84
2021/07/28 07:02:58;;;;;;;4.93;1.20;;;;;;;;;;10456579;28;20443;-85
2021/07/28 07:07:58;;;;;;;1.38;0.93;;;;;;;;;;10457424;28;20467;-85
2021/07/28 07:12:59;;;;;;;1.63;1.27;;;;;;;;;;10487582;28;20067;-83
2021/07/28 07:17:59;;;;;;;1.20;0.97;;;;;;;;;;10484741;28;20903;-83
2021/07/28 07:22:59;;;;;;;1.60;1.00;;;;;;;;;;10498340;28;20041;-83
2021/07/28 07:28:02;;;;;;;1.20;1.02;;;;;;;;;;10485070;28;20025;-83
2021/07/28 07:38:21;;;;;;;1.00;0.90;;;;;;;;;;10431096;28;20037;-80
2021/07/28 07:43:22;;;;;;;1.33;1.20;;;;;;;;;;10498253;28;20482;-81
2021/07/28 07:48:23;;;;;;;1.27;1.00;;;;;;;;;;10484848;28;20478;-81
2021/07/28 07:53:24;;;;;;;1.83;1.00;;;;;;;;;;10444385;28;20018;-80
2021/07/28 07:58:24;;;;;;;3.08;1.40;;;;;;;;;;10457809;28;20052;-87
2021/07/28 08:03:25;;;;;;;6.63;2.30;;;;;;;;;;10468459;28;20028;-83
2021/07/28 08:08:25;;;;;;;3.33;2.60;;;;;;;;;;10469933;28;20049;-83
2021/07/28 08:13:27;;;;;;;9.27;3.33;;;;;;;;;;10485637;28;20115;-82
2021/07/28 08:18:28;;;;;;;5.95;2.88;;;;;;;;;;10463685;28;20855;-82
2021/07/28 08:23:28;;;;;;;5.35;3.03;;;;;;;;;;10451225;28;20053;-81
2021/07/28 08:28:28;;;;;;;4.70;2.73;;;;;;;;;;10464323;28;20021;-87
2021/07/28 08:33:29;;;;;;;7.17;3.57;;;;;;;;;;10492213;28;20112;-92
2021/07/28 08:38:30;;;;;;;7.45;3.17;;;;;;;;;;10451626;28;20864;-94
2021/07/28 08:43:35;;;;;;;7.57;3.63;;;;;;;;;;10467032;28;20025;-94
2021/07/28 08:48:36;;;;;;;9.13;3.55;;;;;;;;;;10466001;28;20029;-93
2021/07/28 08:53:36;;;;;;;7.65;3.45;;;;;;;;;;10471776;28;20032;-92
2021/07/28 08:58:38;;;;;;;9.27;3.20;;;;;;;;;;10350579;28;20037;-95
2021/07/28 09:03:39;;;;;;;9.45;3.58;;;;;;;;;;10361809;28;20112;-87
2021/07/28 09:08:40;;;;;;;7.78;2.92;;;;;;;;;;10426699;28;20052;-91
2021/07/28 09:13:42;;;;;;;6.75;3.10;;;;;;;;;;10462028;28;20044;-91
2021/07/28 09:18:48;;;;;;;6.10;3.55;;;;;;;;;;10464618;28;20029;-91
2021/07/28 09:23:57;;;;;;;11.25;3.58;;;;;;;;;;10451896;28;20021;-91
2021/07/28 09:29:04;;;;;;;8.45;3.92;;;;;;;;;;10440727;28;20161;-87
2021/07/28 09:34:23;;;;;;;8.23;4.13;;;;;;;;;;10419465;28;20033;-90
2021/07/28 09:39:25;;;;;;;8.38;3.90;;;;;;;;;;10450840;28;20048;-90
2021/07/28 09:44:29;;;;;;;7.93;3.90;;;;;;;;;;10441159;28;20036;-90
2021/07/28 09:49:30;;;;;;;8.27;3.53;;;;;;;;;;10431836;28;20166;-88
2021/07/28 09:54:30;;;;;;;10.15;3.28;;;;;;;;;;10448823;28;20581;-91
2021/07/28 09:59:31;;;;;;;12.05;3.90;;;;;;;;;;10438423;28;20064;-91
2021/07/28 10:04:32;;;;;;;6.38;3.20;;;;;;;;;;10447103;28;20510;-91
2021/07/28 10:09:36;;;;;;;6.10;3.47;;;;;;;;;;10446004;28;20077;-90
2021/07/28 10:14:36;;;;;;;7.68;3.35;;;;;;;;;;10451049;28;20037;-89
2021/07/28 10:19:37;;;;;;;9.25;3.38;;;;;;;;;;10450790;28;20032;-89
2021/07/28 10:24:38;;;;;;;7.32;3.58;;;;;;;;;;10366680;28;20040;-87
2021/07/28 10:29:38;;;;;;;6.88;3.08;;;;;;;;;;10414823;28;20458;-86
2021/07/28 10:34:39;;;;;;;5.78;3.00;;;;;;;;;;10434299;28;20032;-83
2021/07/28 10:39:46;;;;;;;8.43;3.53;;;;;;;;;;10455148;28;20095;-83
2021/07/28 10:44:56;;;;;;;7.87;3.20;;;;;;;;;;10448360;28;20356;-83
2021/07/28 10:49:56;;;;;;;9.25;3.25;;;;;;;;;;10449148;28;20466;-83
2021/07/28 10:54:57;;;;;;;8.32;3.53;;;;;;;;;;10461808;28;20494;-83
2021/07/28 10:59:57;;;;;;;8.53;3.57;;;;;;;;;;10451166;28;20047;-82
2021/07/28 11:05:19;;;;;;;7.77;2.93;;;;;;;;;;10464022;28;20112;-83
2021/07/28 11:10:20;;;;;;;6.95;3.10;;;;;;;;;;10440801;28;20545;-82
2021/07/28 11:15:21;;;;;;;4.82;2.92;;;;;;;;;;10459099;28;20052;-83
2021/07/28 11:20:29;;;;;;;6.35;3.13;;;;;;;;;;10439648;28;20116;-82
2021/07/28 11:25:32;;;;;;;5.38;3.30;;;;;;;;;;10451649;28;20033;-82
2021/07/28 11:30:33;;;;;;;10.75;3.63;;;;;;;;;;10431902;28;20032;-83
2021/07/28 11:35:44;;;;;;;7.22;3.63;;;;;;;;;;10456364;28;20404;-88
2021/07/28 11:40:49;;;;;;;7.93;3.45;;;;;;;;;;10445726;28;20025;-88
2021/07/28 11:45:50;;;;;;;7.95;3.42;;;;;;;;;;10450117;28;20033;-95
2021/07/28 11:50:50;;;;;;;11.18;3.92;;;;;;;;;;10460885;28;20096;-90
2021/07/28 11:55:55;;;;;;;9.70;3.55;;;;;;;;;;10442707;28;20119;-90
2021/07/28 12:00:55;;;;;;;7.75;3.70;;;;;;;;;;10455828;28;20036;-92
2021/07/28 12:05:59;;;;;;;8.80;3.57;;;;;;;;;;10457582;28;20033;-90
2021/07/28 12:11:10;;;;;;;7.32;3.78;;;;;;;;;;10441847;28;20054;-91
2021/07/28 12:16:12;;;;;;;9.48;4.00;;;;;;;;;;10447803;28;20024;-90
2021/07/28 12:21:13;;;;;;;8.18;3.50;;;;;;;;;;10447184;28;20041;-89
2021/07/28 12:26:14;;;;;;;15.20;4.18;;;;;;;;;;10454917;28;20052;-88
2021/07/28 12:31:27;;;;;;;18.02;4.25;;;;;;;;;;10453211;28;20064;-89
2021/07/28 12:36:28;;;;;;;13.50;4.47;;;;;;;;;;10454720;28;20025;-91
2021/07/28 12:41:28;;;;;;;11.63;4.55;;;;;;;;;;10454725;28;20029;-89
2021/07/28 12:46:29;;;;;;;15.67;4.60;;;;;;;;;;10462868;28;20060;-90
2021/07/28 12:51:29;;;;;;;17.70;4.95;;;;;;;;;;10462402;28;20152;-91
2021/07/28 12:56:29;;;;;;;14.93;4.50;;;;;;;;;;10444741;28;20037;-89
2021/07/28 13:01:31;;;;;;;20.97;5.27;;;;;;;;;;10462600;28;20079;-95
2021/07/28 13:06:31;;;;;;;30.73;4.90;;;;;;;;;;10455613;28;20047;-93
2021/07/28 13:11:32;;;;;;;15.77;5.33;;;;;;;;;;10445320;28;20422;-93
2021/07/28 13:16:32;;;;;;;21.33;5.97;;;;;;;;;;10448223;28;20041;-92
2021/07/28 13:21:32;;;;;;;15.13;5.00;;;;;;;;;;10454857;28;20028;-93
2021/07/28 13:26:33;;;;;;;19.48;4.85;;;;;;;;;;10460347;28;20100;-93
2021/07/28 13:31:34;;;;;;;12.27;4.67;;;;;;;;;;10456786;28;20472;-96
2021/07/28 13:36:34;;;;;;;11.23;4.68;;;;;;;;;;10456964;28;20040;-91
2021/07/28 13:41:35;;;;;;;15.35;5.40;;;;;;;;;;10461572;28;20495;-88
2021/07/28 13:46:35;;;;;;;13.50;5.10;;;;;;;;;;10442641;28;20032;-93
2021/07/28 13:51:36;;;;;;;11.80;4.78;;;;;;;;;;10423234;28;20474;-92
2021/07/28 13:56:36;;;;;;;10.98;4.78;;;;;;;;;;10459245;28;20093;-92
2021/07/28 14:01:38;;;;;;;19.67;4.77;;;;;;;;;;10469512;28;20079;-95
2021/07/28 14:06:38;;;;;;;13.07;4.72;;;;;;;;;;10464874;28;20396;-94
2021/07/28 14:11:39;;;;;;;10.90;4.63;;;;;;;;;;10457421;28;20040;-92
2021/07/28 14:16:39;;;;;;;16.20;4.93;;;;;;;;;;10445670;28;20264;-94
2021/07/28 14:21:40;;;;;;;9.10;4.40;;;;;;;;;;10439667;28;20017;-90
2021/07/28 14:26:41;;;;;;;14.77;4.70;;;;;;;;;;10468602;28;20128;-91
2021/07/28 14:31:41;;;;;;;15.50;4.82;;;;;;;;;;10462039;28;20387;-93
2021/07/28 14:36:42;;;;;;;10.40;5.22;;;;;;;;;;10463121;28;20304;-93
2021/07/28 14:41:42;;;;;;;8.23;4.07;;;;;;;;;;10417182;28;20381;-89
2021/07/28 14:46:43;;;;;;;6.90;3.80;;;;;;;;;;10442236;28;20028;-87
2021/07/28 14:51:44;;;;;;;11.02;4.88;;;;;;;;;;10472968;28;20463;-88
2021/07/28 14:56:45;;;;;;;6.70;4.13;;;;;;;;;;10445639;28;20033;-89
2021/07/28 15:01:46;;;;;;;15.27;4.25;;;;;;;;;;10450087;28;20091;-88
2021/07/28 15:06:47;;;;;;;13.48;4.55;;;;;;;;;;10459863;28;20095;-90
2021/07/28 15:11:48;;;;;;;8.30;4.35;;;;;;;;;;10445628;28;20032;-89
2021/07/28 15:16:48;;;;;;;8.20;3.83;;;;;;;;;;10431925;28;20024;-90
2021/07/28 15:21:50;;;;;;;7.65;4.30;;;;;;;;;;10458109;28;20024;-92
2021/07/28 15:26:50;;;;;;;9.90;4.03;;;;;;;;;;10452018;28;20025;-95
2021/07/28 15:31:52;;;;;;;9.43;4.15;;;;;;;;;;10466031;28;20392;-96
2021/07/28 15:36:52;;;;;;;10.43;4.10;;;;;;;;;;10460946;28;20032;-96
2021/07/28 15:41:53;;;;;;;10.07;4.50;;;;;;;;;;10470520;28;20032;-96
2021/07/28 15:46:54;;;;;;;8.30;4.30;;;;;;;;;;10457362;28;20357;-94
2021/07/28 15:51:54;;;;;;;9.95;4.10;;;;;;;;;;10455024;28;20100;-91
2021/07/28 15:56:54;;;;;;;8.13;3.90;;;;;;;;;;10455819;28;20032;-91
2021/07/28 16:01:55;;;;;;;9.90;4.40;;;;;;;;;;10456727;28;20104;-92
2021/07/28 16:06:55;;;;;;;10.40;4.13;;;;;;;;;;10484357;23;20490;-95
2021/07/28 16:11:56;;;;;;;7.93;4.20;;;;;;;;;;10498645;28;20458;-96
2021/07/28 16:16:56;;;;;;;5.70;3.80;;;;;;;;;;10496878;28;20449;-94
2021/07/28 16:21:59;;;;;;;10.85;4.20;;;;;;;;;;10495848;28;20553;-95
2021/07/28 16:27:00;;;;;;;6.10;3.83;;;;;;;;;;10500954;28;20025;-95
2021/07/28 16:32:00;;;;;;;8.63;3.43;;;;;;;;;;10500889;28;20021;-96
2021/07/28 16:37:01;;;;;;;9.17;3.93;;;;;;;;;;10498336;28;20422;-95
2021/07/28 16:42:01;;;;;;;8.95;3.97;;;;;;;;;;10496831;28;20032;-95
2021/07/28 16:47:02;;;;;;;6.70;3.83;;;;;;;;;;10498939;28;20032;-92
2021/07/28 16:52:02;;;;;;;6.30;3.38;;;;;;;;;;10497330;28;20029;-92
2021/07/28 16:57:04;;;;;;;8.82;3.75;;;;;;;;;;10504465;28;20111;-93
2021/07/28 17:02:05;;;;;;;8.73;4.07;;;;;;;;;;10496860;28;20533;-92
2021/07/28 17:07:06;;;;;;;7.13;3.67;;;;;;;;;;10503031;28;20055;-93
2021/07/28 17:12:06;;;;;;;6.72;3.63;;;;;;;;;;10512003;28;20431;-93
2021/07/28 17:17:07;;;;;;;7.03;3.88;;;;;;;;;;10518116;28;20042;-90
2021/07/28 17:22:07;;;;;;;4.82;3.53;;;;;;;;;;10506401;28;20478;-82
2021/07/28 17:27:07;;;;;;;7.67;3.60;;;;;;;;;;10490846;28;20035;-82
2021/07/28 17:32:08;;;;;;;7.93;3.70;;;;;;;;;;10501629;28;20063;-86
2021/07/28 17:37:40;;;;;;;6.97;3.60;;;;;;;;;;10500464;28;20103;-86
2021/07/28 17:42:41;;;;;;;7.32;3.72;;;;;;;;;;10501688;28;20430;-86
2021/07/28 17:47:42;;;;;;;7.60;3.42;;;;;;;;;;10501219;28;20086;-86
2021/07/28 17:52:43;;;;;;;4.88;3.40;;;;;;;;;;10510197;28;20032;-86
2021/07/28 17:57:43;;;;;;;7.35;3.22;;;;;;;;;;10502035;28;20032;-86
2021/07/28 18:02:43;;;;;;;6.32;3.35;;;;;;;;;;10498487;28;20036;-86
2021/07/28 18:07:44;;;;;;;8.97;3.60;;;;;;;;;;10499035;28;20052;-86
2021/07/28 18:12:45;;;;;;;8.80;3.60;;;;;;;;;;10501734;28;20446;-86
2021/07/28 18:17:45;;;;;;;4.97;3.05;;;;;;;;;;10490731;28;20158;-87
2021/07/28 18:22:46;;;;;;;8.05;3.83;;;;;;;;;;10500802;28;20042;-87
2021/07/28 18:27:46;;;;;;;7.80;4.03;;;;;;;;;;10495692;28;20043;-85
2021/07/28 18:32:48;;;;;;;5.13;3.35;;;;;;;;;;10498237;28;20119;-87
2021/07/28 18:37:49;;;;;;;6.43;3.60;;;;;;;;;;10500282;28;20395;-86
2021/07/28 18:42:51;;;;;;;6.53;3.17;;;;;;;;;;10493159;28;20028;-86
2021/07/28 18:47:51;;;;;;;11.40;3.53;;;;;;;;;;10498326;28;20078;-83
2021/07/28 18:52:52;;;;;;;7.13;3.10;;;;;;;;;;10494036;28;20032;-84
2021/07/28 18:57:53;;;;;;;7.00;3.57;;;;;;;;;;10491918;28;20049;-87
2021/07/28 19:02:53;;;;;;;6.60;3.45;;;;;;;;;;10500226;28;20464;-86
2021/07/28 19:07:53;;;;;;;6.27;2.87;;;;;;;;;;10498722;28;20072;-88
2021/07/28 19:12:54;;;;;;;6.73;3.93;;;;;;;;;;10513774;28;20039;-91
2021/07/28 19:17:54;;;;;;;9.77;4.40;;;;;;;;;;10497929;28;20044;-86
2021/07/28 19:22:54;;;;;;;10.93;4.30;;;;;;;;;;10513051;28;20032;-85
2021/07/28 19:27:56;;;;;;;10.03;4.27;;;;;;;;;;10508358;28;20047;-85
2021/07/28 19:32:57;;;;;;;8.85;4.43;;;;;;;;;;10495605;28;20023;-84
2021/07/28 19:38:01;;;;;;;9.32;4.15;;;;;;;;;;10497705;28;20051;-84
2021/07/28 19:43:02;;;;;;;7.60;4.63;;;;;;;;;;10494984;28;20119;-85
2021/07/28 19:48:12;;;;;;;10.07;4.47;;;;;;;;;;10496171;28;20548;-84
2021/07/28 19:53:12;;;;;;;12.55;4.68;;;;;;;;;;10492219;28;20029;-84
2021/07/28 19:58:17;;;;;;;8.40;4.33;;;;;;;;;;10499575;28;20464;-84
2021/07/28 20:03:18;;;;;;;7.78;4.68;;;;;;;;;;10477153;28;20541;-85
2021/07/28 20:08:19;;;;;;;10.57;4.72;;;;;;;;;;10506019;28;20045;-84
2021/07/28 20:13:21;;;;;;;7.25;4.25;;;;;;;;;;10510945;28;20479;-85
2021/07/28 20:18:21;;;;;;;9.43;4.35;;;;;;;;;;10491502;28;20032;-85
2021/07/28 20:23:21;;;;;;;8.27;4.33;;;;;;;;;;10495458;28;20024;-84
2021/07/28 20:28:23;;;;;;;11.23;5.05;;;;;;;;;;10483976;28;20446;-85
2021/07/28 20:33:23;;;;;;;10.43;4.53;;;;;;;;;;10481032;28;20033;-85
2021/07/28 20:38:24;;;;;;;10.32;5.30;;;;;;;;;;10496480;28;20459;-84
2021/07/28 20:43:24;;;;;;;11.32;4.65;;;;;;;;;;10482424;28;20459;-85
2021/07/28 20:48:25;;;;;;;14.43;4.67;;;;;;;;;;10503919;28;20111;-85
2021/07/28 20:53:25;;;;;;;5.85;4.20;;;;;;;;;;10500640;28;20553;-85
2021/07/28 20:58:25;;;;;;;7.13;3.90;;;;;;;;;;10497251;28;20028;-88
2021/07/28 21:03:26;;;;;;;11.13;4.73;;;;;;;;;;10496061;28;20040;-85
2021/07/28 21:08:26;;;;;;;12.27;4.23;;;;;;;;;;10502559;28;20478;-86
2021/07/28 21:13:26;;;;;;;9.38;3.95;;;;;;;;;;10509696;28;20502;-87
2021/07/28 21:18:27;;;;;;;8.73;4.10;;;;;;;;;;10493001;28;20029;-87
2021/07/28 21:23:29;;;;;;;9.73;4.60;;;;;;;;;;10513805;28;20448;-87
2021/07/28 21:28:29;;;;;;;9.90;4.03;;;;;;;;;;10505852;28;20357;-88
2021/07/28 21:33:30;;;;;;;7.00;3.50;;;;;;;;;;10497103;28;20033;-87
2021/07/28 21:38:31;;;;;;;8.43;3.83;;;;;;;;;;10500059;28;20458;-85
2021/07/28 21:43:31;;;;;;;8.25;3.70;;;;;;;;;;10506123;28;20028;-83
2021/07/28 21:48:36;;;;;;;10.35;5.30;;;;;;;;;;10499340;28;20120;-83
2021/07/28 21:53:36;;;;;;;13.00;5.03;;;;;;;;;;10496159;28;20028;-83
2021/07/28 21:58:48;;;;;;;11.48;5.10;;;;;;;;;;10498450;28;20112;-82
2021/07/28 22:03:49;;;;;;;11.68;4.85;;;;;;;;;;10497129;28;20546;-82
2021/07/28 22:08:50;;;;;;;14.38;5.13;;;;;;;;;;10501326;28;20102;-84
2021/07/28 22:13:51;;;;;;;11.15;5.10;;;;;;;;;;10500581;28;20457;-83
2021/07/28 22:18:51;;;;;;;11.40;5.20;;;;;;;;;;10502917;28;20115;-84
2021/07/28 22:23:58;;;;;;;11.40;5.10;;;;;;;;;;10513180;28;20028;-84
2021/07/28 22:29:03;;;;;;;10.90;5.40;;;;;;;;;;10500819;28;20025;-85
2021/07/28 22:34:03;;;;;;;8.02;5.68;;;;;;;;;;10514112;28;20028;-85
2021/07/28 22:39:04;;;;;;;10.57;5.15;;;;;;;;;;10507883;28;20024;-83
2021/07/28 22:44:05;;;;;;;9.07;5.40;;;;;;;;;;10517760;28;20032;-84
2021/07/28 22:54:25;;;;;;;11.15;5.78;;;;;;;;;;10497493;28;20040;-87
2021/07/28 22:59:38;;;;;;;12.03;5.73;;;;;;;;;;10499106;28;20468;-85
2021/07/28 23:09:57;;;;;;;11.82;6.32;;;;;;;;;;10505241;28;20479;-85
2021/07/28 23:14:57;;;;;;;12.68;6.03;;;;;;;;;;10497884;28;20032;-85
2021/07/28 23:19:59;;;;;;;10.57;6.63;;;;;;;;;;10497481;28;20021;-84
2021/07/28 23:24:59;;;;;;;12.73;6.68;;;;;;;;;;10513548;28;20028;-83
2021/07/28 23:29:59;;;;;;;16.77;7.63;;;;;;;;;;10499544;28;20419;-84
2021/07/28 23:35:00;;;;;;;13.23;6.77;;;;;;;;;;10496059;28;20423;-84
2021/07/28 23:40:00;;;;;;;17.03;7.37;;;;;;;;;;10498374;28;20108;-85
2021/07/28 23:45:01;;;;;;;11.57;6.47;;;;;;;;;;10497003;28;20474;-85
2021/07/28 23:50:02;;;;;;;11.35;7.13;;;;;;;;;;10526413;28;20047;-85
2021/07/28 23:55:02;;;;;;;11.38;6.80;;;;;;;;;;10510623;28;20466;-84
